sensor_id;sensor_type;location;lat;lon;timestamp;P1;durP1;ratioP1;P2;durP2;ratioP2
33786;SDS011;29742;51.540;9.358;2023-06-22T00:01:07;2.80;;;2.58;;
33786;SDS011;29742;51.540;9.358;2023-06-22T00:06:08;3.53;;;2.92;;
33786;SDS011;29742;51.540;9.358;2023-06-22T00:11:08;3.00;;;2.70;;
33786;SDS011;29742;51.540;9.358;2023-06-22T00:16:09;3.25;;;2.95;;
33786;SDS011;29742;51.540;9.358;2023-06-22T00:21:09;3.58;;;2.60;;
33786;SDS011;29742;51.540;9.358;2023-06-22T00:26:09;4.43;;;2.75;;
33786;SDS011;29742;51.540;9.358;2023-06-22T00:31:11;4.43;;;2.95;;
33786;SDS011;29742;51.540;9.358;2023-06-22T00:36:11;3.10;;;2.80;;
33786;SDS011;29742;51.540;9.358;2023-06-22T00:41:16;4.15;;;3.10;;
33786;SDS011;29742;51.540;9.358;2023-06-22T00:46:17;3.50;;;3.20;;
33786;SDS011;29742;51.540;9.358;2023-06-22T00:51:17;3.08;;;2.75;;
33786;SDS011;29742;51.540;9.358;2023-06-22T00:56:20;3.97;;;3.42;;
33786;SDS011;29742;51.540;9.358;2023-06-22T01:01:24;3.15;;;2.75;;
33786;SDS011;29742;51.540;9.358;2023-06-22T01:06:29;3.35;;;2.97;;
33786;SDS011;29742;51.540;9.358;2023-06-22T01:11:39;3.97;;;3.58;;
33786;SDS011;29742;51.540;9.358;2023-06-22T01:16:45;5.85;;;3.05;;
33786;SDS011;29742;51.540;9.358;2023-06-22T01:21:46;3.47;;;3.08;;
33786;SDS011;29742;51.540;9.358;2023-06-22T01:32:28;4.05;;;3.20;;
33786;SDS011;29742;51.540;9.358;2023-06-22T01:37:30;3.38;;;2.90;;
33786;SDS011;29742;51.540;9.358;2023-06-22T01:42:33;3.53;;;3.20;;
33786;SDS011;29742;51.540;9.358;2023-06-22T01:47:34;3.45;;;3.00;;
33786;SDS011;29742;51.540;9.358;2023-06-22T01:52:34;3.60;;;3.28;;
33786;SDS011;29742;51.540;9.358;2023-06-22T01:57:35;3.35;;;3.05;;
33786;SDS011;29742;51.540;9.358;2023-06-22T02:03:10;3.03;;;2.45;;
33786;SDS011;29742;51.540;9.358;2023-06-22T02:08:13;3.40;;;3.08;;
33786;SDS011;29742;51.540;9.358;2023-06-22T02:13:18;8.55;;;3.33;;
33786;SDS011;29742;51.540;9.358;2023-06-22T02:18:19;3.47;;;3.13;;
33786;SDS011;29742;51.540;9.358;2023-06-22T02:23:20;4.32;;;3.40;;
33786;SDS011;29742;51.540;9.358;2023-06-22T02:28:21;5.07;;;3.05;;
33786;SDS011;29742;51.540;9.358;2023-06-22T02:33:21;2.88;;;2.60;;
33786;SDS011;29742;51.540;9.358;2023-06-22T02:38:21;3.60;;;2.70;;
33786;SDS011;29742;51.540;9.358;2023-06-22T02:43:24;10.68;;;3.17;;
33786;SDS011;29742;51.540;9.358;2023-06-22T02:48:24;2.97;;;2.70;;
33786;SDS011;29742;51.540;9.358;2023-06-22T02:53:25;6.38;;;3.20;;
33786;SDS011;29742;51.540;9.358;2023-06-22T02:58:25;3.25;;;2.95;;
33786;SDS011;29742;51.540;9.358;2023-06-22T03:03:26;4.32;;;3.53;;
33786;SDS011;29742;51.540;9.358;2023-06-22T03:08:26;4.68;;;2.72;;
33786;SDS011;29742;51.540;9.358;2023-06-22T03:13:26;4.60;;;3.20;;
33786;SDS011;29742;51.540;9.358;2023-06-22T03:18:27;4.03;;;3.05;;
33786;SDS011;29742;51.540;9.358;2023-06-22T03:23:27;3.95;;;3.55;;
33786;SDS011;29742;51.540;9.358;2023-06-22T03:28:28;3.88;;;3.35;;
33786;SDS011;29742;51.540;9.358;2023-06-22T03:33:28;3.88;;;3.20;;
33786;SDS011;29742;51.540;9.358;2023-06-22T03:38:28;4.72;;;3.25;;
33786;SDS011;29742;51.540;9.358;2023-06-22T03:43:29;4.07;;;3.20;;
33786;SDS011;29742;51.540;9.358;2023-06-22T03:48:29;4.43;;;3.47;;
33786;SDS011;29742;51.540;9.358;2023-06-22T03:53:30;4.22;;;3.00;;
33786;SDS011;29742;51.540;9.358;2023-06-22T03:58:30;3.95;;;3.45;;
33786;SDS011;29742;51.540;9.358;2023-06-22T04:03:32;2.72;;;2.53;;
33786;SDS011;29742;51.540;9.358;2023-06-22T04:08:33;3.28;;;2.97;;
33786;SDS011;29742;51.540;9.358;2023-06-22T04:13:33;2.90;;;2.50;;
33786;SDS011;29742;51.540;9.358;2023-06-22T04:18:33;3.70;;;2.92;;
33786;SDS011;29742;51.540;9.358;2023-06-22T04:23:34;3.17;;;2.88;;
33786;SDS011;29742;51.540;9.358;2023-06-22T04:28:34;3.95;;;3.47;;
33786;SDS011;29742;51.540;9.358;2023-06-22T04:33:35;3.00;;;2.75;;
33786;SDS011;29742;51.540;9.358;2023-06-22T04:38:35;3.45;;;3.10;;
33786;SDS011;29742;51.540;9.358;2023-06-22T04:43:35;3.83;;;2.92;;
33786;SDS011;29742;51.540;9.358;2023-06-22T04:48:36;4.13;;;2.47;;
33786;SDS011;29742;51.540;9.358;2023-06-22T04:53:36;3.08;;;2.72;;
33786;SDS011;29742;51.540;9.358;2023-06-22T04:58:37;3.58;;;2.95;;
33786;SDS011;29742;51.540;9.358;2023-06-22T05:03:37;3.08;;;2.65;;
33786;SDS011;29742;51.540;9.358;2023-06-22T05:08:37;3.10;;;2.80;;
33786;SDS011;29742;51.540;9.358;2023-06-22T05:13:38;3.65;;;3.17;;
33786;SDS011;29742;51.540;9.358;2023-06-22T05:18:38;2.58;;;2.38;;
33786;SDS011;29742;51.540;9.358;2023-06-22T05:23:39;4.32;;;2.65;;
33786;SDS011;29742;51.540;9.358;2023-06-22T05:28:39;2.92;;;2.70;;
33786;SDS011;29742;51.540;9.358;2023-06-22T05:33:40;3.28;;;2.97;;
33786;SDS011;29742;51.540;9.358;2023-06-22T05:38:43;3.00;;;2.70;;
33786;SDS011;29742;51.540;9.358;2023-06-22T05:43:43;3.13;;;2.85;;
33786;SDS011;29742;51.540;9.358;2023-06-22T05:48:44;3.20;;;2.90;;
33786;SDS011;29742;51.540;9.358;2023-06-22T05:53:44;3.03;;;2.70;;
33786;SDS011;29742;51.540;9.358;2023-06-22T05:58:49;3.88;;;3.50;;
33786;SDS011;29742;51.540;9.358;2023-06-22T06:03:49;3.30;;;3.00;;
33786;SDS011;29742;51.540;9.358;2023-06-22T06:08:52;2.92;;;2.63;;
33786;SDS011;29742;51.540;9.358;2023-06-22T06:13:52;3.70;;;3.25;;
33786;SDS011;29742;51.540;9.358;2023-06-22T06:18:53;3.22;;;2.92;;
33786;SDS011;29742;51.540;9.358;2023-06-22T06:23:55;2.80;;;2.50;;
33786;SDS011;29742;51.540;9.358;2023-06-22T06:28:56;2.83;;;2.58;;
33786;SDS011;29742;51.540;9.358;2023-06-22T06:33:57;3.10;;;2.80;;
33786;SDS011;29742;51.540;9.358;2023-06-22T06:38:58;3.22;;;2.80;;
33786;SDS011;29742;51.540;9.358;2023-06-22T06:43:58;2.85;;;2.55;;
33786;SDS011;29742;51.540;9.358;2023-06-22T06:48:59;5.63;;;2.80;;
33786;SDS011;29742;51.540;9.358;2023-06-22T06:53:59;3.90;;;2.60;;
33786;SDS011;29742;51.540;9.358;2023-06-22T06:59:00;2.50;;;2.30;;
33786;SDS011;29742;51.540;9.358;2023-06-22T07:04:00;2.42;;;2.22;;
33786;SDS011;29742;51.540;9.358;2023-06-22T07:09:01;2.90;;;2.58;;
33786;SDS011;29742;51.540;9.358;2023-06-22T07:14:01;3.08;;;2.63;;
33786;SDS011;29742;51.540;9.358;2023-06-22T07:19:02;3.85;;;2.33;;
33786;SDS011;29742;51.540;9.358;2023-06-22T07:24:02;2.92;;;2.63;;
33786;SDS011;29742;51.540;9.358;2023-06-22T07:29:05;2.73;;;2.53;;
33786;SDS011;29742;51.540;9.358;2023-06-22T07:34:06;2.60;;;2.40;;
33786;SDS011;29742;51.540;9.358;2023-06-22T07:39:06;4.00;;;2.60;;
33786;SDS011;29742;51.540;9.358;2023-06-22T07:44:06;3.03;;;2.70;;
33786;SDS011;29742;51.540;9.358;2023-06-22T07:49:07;2.63;;;2.17;;
33786;SDS011;29742;51.540;9.358;2023-06-22T07:54:08;2.60;;;2.38;;
33786;SDS011;29742;51.540;9.358;2023-06-22T07:59:09;2.75;;;2.40;;
33786;SDS011;29742;51.540;9.358;2023-06-22T08:04:10;3.05;;;2.75;;
33786;SDS011;29742;51.540;9.358;2023-06-22T08:09:10;2.92;;;2.42;;
33786;SDS011;29742;51.540;9.358;2023-06-22T08:14:10;2.97;;;2.50;;
33786;SDS011;29742;51.540;9.358;2023-06-22T08:19:11;4.18;;;2.63;;
33786;SDS011;29742;51.540;9.358;2023-06-22T08:24:11;2.92;;;2.33;;
33786;SDS011;29742;51.540;9.358;2023-06-22T08:29:12;2.40;;;2.20;;
33786;SDS011;29742;51.540;9.358;2023-06-22T08:34:12;3.17;;;2.25;;
33786;SDS011;29742;51.540;9.358;2023-06-22T08:39:12;2.38;;;2.10;;
33786;SDS011;29742;51.540;9.358;2023-06-22T08:44:13;1.83;;;1.70;;
33786;SDS011;29742;51.540;9.358;2023-06-22T08:49:13;1.73;;;1.63;;
33786;SDS011;29742;51.540;9.358;2023-06-22T08:54:14;2.17;;;1.85;;
33786;SDS011;29742;51.540;9.358;2023-06-22T08:59:14;2.38;;;1.95;;
33786;SDS011;29742;51.540;9.358;2023-06-22T09:04:14;4.70;;;2.50;;
33786;SDS011;29742;51.540;9.358;2023-06-22T09:09:15;1.80;;;1.70;;
33786;SDS011;29742;51.540;9.358;2023-06-22T09:14:16;2.42;;;2.22;;
33786;SDS011;29742;51.540;9.358;2023-06-22T09:19:17;2.42;;;2.05;;
33786;SDS011;29742;51.540;9.358;2023-06-22T09:24:17;2.03;;;1.77;;
33786;SDS011;29742;51.540;9.358;2023-06-22T09:29:17;2.15;;;1.95;;
33786;SDS011;29742;51.540;9.358;2023-06-22T09:34:18;1.90;;;1.80;;
33786;SDS011;29742;51.540;9.358;2023-06-22T09:39:20;2.05;;;1.83;;
33786;SDS011;29742;51.540;9.358;2023-06-22T09:44:20;1.60;;;1.50;;
33786;SDS011;29742;51.540;9.358;2023-06-22T09:49:21;2.50;;;1.77;;
33786;SDS011;29742;51.540;9.358;2023-06-22T09:54:21;2.03;;;1.83;;
33786;SDS011;29742;51.540;9.358;2023-06-22T09:59:23;1.83;;;1.40;;
33786;SDS011;29742;51.540;9.358;2023-06-22T10:04:23;2.13;;;1.92;;
33786;SDS011;29742;51.540;9.358;2023-06-22T10:09:24;1.42;;;1.33;;
33786;SDS011;29742;51.540;9.358;2023-06-22T10:14:25;2.03;;;1.77;;
33786;SDS011;29742;51.540;9.358;2023-06-22T10:19:27;1.75;;;1.60;;
33786;SDS011;29742;51.540;9.358;2023-06-22T10:24:27;2.00;;;1.75;;
33786;SDS011;29742;51.540;9.358;2023-06-22T10:29:27;1.92;;;1.83;;
33786;SDS011;29742;51.540;9.358;2023-06-22T10:34:28;3.17;;;2.00;;
33786;SDS011;29742;51.540;9.358;2023-06-22T10:39:28;1.77;;;1.67;;
33786;SDS011;29742;51.540;9.358;2023-06-22T10:44:29;2.17;;;1.90;;
33786;SDS011;29742;51.540;9.358;2023-06-22T10:49:29;2.65;;;1.98;;
33786;SDS011;29742;51.540;9.358;2023-06-22T10:54:29;2.25;;;2.05;;
33786;SDS011;29742;51.540;9.358;2023-06-22T10:59:30;2.83;;;2.08;;
33786;SDS011;29742;51.540;9.358;2023-06-22T11:04:30;1.95;;;1.65;;
33786;SDS011;29742;51.540;9.358;2023-06-22T11:09:30;2.22;;;1.88;;
33786;SDS011;29742;51.540;9.358;2023-06-22T11:14:31;1.85;;;1.70;;
33786;SDS011;29742;51.540;9.358;2023-06-22T11:19:33;2.05;;;1.85;;
33786;SDS011;29742;51.540;9.358;2023-06-22T11:24:34;2.88;;;2.10;;
33786;SDS011;29742;51.540;9.358;2023-06-22T11:29:34;2.20;;;1.73;;
33786;SDS011;29742;51.540;9.358;2023-06-22T11:34:35;1.90;;;1.67;;
33786;SDS011;29742;51.540;9.358;2023-06-22T11:39:36;1.50;;;1.40;;
33786;SDS011;29742;51.540;9.358;2023-06-22T11:44:36;1.77;;;1.55;;
33786;SDS011;29742;51.540;9.358;2023-06-22T11:49:36;2.13;;;1.92;;
33786;SDS011;29742;51.540;9.358;2023-06-22T11:54:37;2.35;;;1.83;;
33786;SDS011;29742;51.540;9.358;2023-06-22T11:59:38;1.70;;;1.48;;
33786;SDS011;29742;51.540;9.358;2023-06-22T12:04:38;1.90;;;1.65;;
33786;SDS011;29742;51.540;9.358;2023-06-22T12:09:39;2.15;;;1.95;;
33786;SDS011;29742;51.540;9.358;2023-06-22T12:14:39;1.95;;;1.75;;
33786;SDS011;29742;51.540;9.358;2023-06-22T12:19:39;2.17;;;1.98;;
33786;SDS011;29742;51.540;9.358;2023-06-22T12:24:40;2.03;;;1.83;;
33786;SDS011;29742;51.540;9.358;2023-06-22T12:29:40;1.95;;;1.67;;
33786;SDS011;29742;51.540;9.358;2023-06-22T12:34:41;2.05;;;1.80;;
33786;SDS011;29742;51.540;9.358;2023-06-22T12:39:42;2.83;;;1.92;;
33786;SDS011;29742;51.540;9.358;2023-06-22T12:44:43;2.58;;;2.08;;
33786;SDS011;29742;51.540;9.358;2023-06-22T12:49:43;1.90;;;1.70;;
33786;SDS011;29742;51.540;9.358;2023-06-22T12:54:43;2.20;;;1.90;;
33786;SDS011;29742;51.540;9.358;2023-06-22T12:59:44;2.85;;;2.20;;
33786;SDS011;29742;51.540;9.358;2023-06-22T13:04:44;3.00;;;2.42;;
33786;SDS011;29742;51.540;9.358;2023-06-22T13:09:45;2.20;;;2.00;;
33786;SDS011;29742;51.540;9.358;2023-06-22T13:14:46;2.65;;;2.20;;
33786;SDS011;29742;51.540;9.358;2023-06-22T13:19:47;3.83;;;2.30;;
33786;SDS011;29742;51.540;9.358;2023-06-22T13:24:47;1.85;;;1.67;;
33786;SDS011;29742;51.540;9.358;2023-06-22T13:29:47;2.20;;;1.88;;
33786;SDS011;29742;51.540;9.358;2023-06-22T13:34:48;2.38;;;1.98;;
33786;SDS011;29742;51.540;9.358;2023-06-22T13:39:48;2.10;;;1.90;;
33786;SDS011;29742;51.540;9.358;2023-06-22T13:44:49;2.35;;;1.85;;
33786;SDS011;29742;51.540;9.358;2023-06-22T13:49:49;1.70;;;1.60;;
33786;SDS011;29742;51.540;9.358;2023-06-22T13:54:49;2.90;;;2.35;;
33786;SDS011;29742;51.540;9.358;2023-06-22T13:59:50;2.22;;;2.03;;
33786;SDS011;29742;51.540;9.358;2023-06-22T14:04:50;2.90;;;2.17;;
33786;SDS011;29742;51.540;9.358;2023-06-22T14:09:50;2.47;;;2.22;;
33786;SDS011;29742;51.540;9.358;2023-06-22T14:14:51;2.70;;;2.33;;
33786;SDS011;29742;51.540;9.358;2023-06-22T14:19:52;2.22;;;2.03;;
33786;SDS011;29742;51.540;9.358;2023-06-22T14:24:53;2.60;;;2.13;;
33786;SDS011;29742;51.540;9.358;2023-06-22T14:29:53;2.17;;;1.95;;
33786;SDS011;29742;51.540;9.358;2023-06-22T14:34:53;2.30;;;1.95;;
33786;SDS011;29742;51.540;9.358;2023-06-22T14:39:54;3.30;;;2.03;;
33786;SDS011;29742;51.540;9.358;2023-06-22T14:44:54;2.72;;;2.05;;
33786;SDS011;29742;51.540;9.358;2023-06-22T14:49:55;2.03;;;1.83;;
33786;SDS011;29742;51.540;9.358;2023-06-22T14:54:55;3.03;;;2.35;;
33786;SDS011;29742;51.540;9.358;2023-06-22T14:59:55;2.88;;;2.22;;
33786;SDS011;29742;51.540;9.358;2023-06-22T15:04:56;2.85;;;2.28;;
33786;SDS011;29742;51.540;9.358;2023-06-22T15:09:57;3.00;;;1.80;;
33786;SDS011;29742;51.540;9.358;2023-06-22T15:14:57;2.10;;;1.85;;
33786;SDS011;29742;51.540;9.358;2023-06-22T15:19:58;3.45;;;2.50;;
33786;SDS011;29742;51.540;9.358;2023-06-22T15:24:58;2.83;;;2.20;;
33786;SDS011;29742;51.540;9.358;2023-06-22T15:29:59;3.65;;;2.25;;
33786;SDS011;29742;51.540;9.358;2023-06-22T15:34:59;3.10;;;2.00;;
33786;SDS011;29742;51.540;9.358;2023-06-22T15:39:59;2.50;;;1.77;;
33786;SDS011;29742;51.540;9.358;2023-06-22T15:45:00;2.72;;;1.65;;
33786;SDS011;29742;51.540;9.358;2023-06-22T15:50:00;2.15;;;1.80;;
33786;SDS011;29742;51.540;9.358;2023-06-22T15:55:01;3.83;;;2.63;;
33786;SDS011;29742;51.540;9.358;2023-06-22T16:00:01;2.60;;;2.22;;
33786;SDS011;29742;51.540;9.358;2023-06-22T16:05:03;2.63;;;2.28;;
33786;SDS011;29742;51.540;9.358;2023-06-22T16:10:04;2.47;;;2.28;;
33786;SDS011;29742;51.540;9.358;2023-06-22T16:15:05;3.45;;;3.08;;
33786;SDS011;29742;51.540;9.358;2023-06-22T16:20:06;4.80;;;2.60;;
33786;SDS011;29742;51.540;9.358;2023-06-22T16:25:07;2.78;;;2.35;;
33786;SDS011;29742;51.540;9.358;2023-06-22T16:30:08;2.17;;;1.98;;
33786;SDS011;29742;51.540;9.358;2023-06-22T16:35:09;2.25;;;2.05;;
33786;SDS011;29742;51.540;9.358;2023-06-22T16:40:09;2.40;;;2.13;;
33786;SDS011;29742;51.540;9.358;2023-06-22T16:45:13;1.98;;;1.80;;
33786;SDS011;29742;51.540;9.358;2023-06-22T16:50:15;2.78;;;2.10;;
33786;SDS011;29742;51.540;9.358;2023-06-22T16:55:15;2.58;;;2.33;;
33786;SDS011;29742;51.540;9.358;2023-06-22T17:00:16;2.08;;;1.83;;
33786;SDS011;29742;51.540;9.358;2023-06-22T17:05:17;2.10;;;1.80;;
33786;SDS011;29742;51.540;9.358;2023-06-22T17:10:19;1.85;;;1.70;;
33786;SDS011;29742;51.540;9.358;2023-06-22T17:15:21;1.98;;;1.80;;
33786;SDS011;29742;51.540;9.358;2023-06-22T17:20:21;2.20;;;1.95;;
33786;SDS011;29742;51.540;9.358;2023-06-22T17:25:22;2.78;;;2.22;;
33786;SDS011;29742;51.540;9.358;2023-06-22T17:30:23;2.13;;;1.92;;
33786;SDS011;29742;51.540;9.358;2023-06-22T17:35:24;2.57;;;2.10;;
33786;SDS011;29742;51.540;9.358;2023-06-22T17:40:24;3.77;;;2.70;;
33786;SDS011;29742;51.540;9.358;2023-06-22T17:45:30;2.97;;;2.17;;
33786;SDS011;29742;51.540;9.358;2023-06-22T17:50:30;2.42;;;2.17;;
33786;SDS011;29742;51.540;9.358;2023-06-22T17:55:31;1.83;;;1.67;;
33786;SDS011;29742;51.540;9.358;2023-06-22T18:00:33;2.17;;;1.95;;
33786;SDS011;29742;51.540;9.358;2023-06-22T18:05:34;2.40;;;1.83;;
33786;SDS011;29742;51.540;9.358;2023-06-22T18:10:35;2.70;;;2.00;;
33786;SDS011;29742;51.540;9.358;2023-06-22T18:15:37;2.65;;;2.00;;
33786;SDS011;29742;51.540;9.358;2023-06-22T18:20:38;2.78;;;2.10;;
33786;SDS011;29742;51.540;9.358;2023-06-22T18:25:39;3.10;;;2.17;;
33786;SDS011;29742;51.540;9.358;2023-06-22T18:30:41;3.03;;;2.10;;
33786;SDS011;29742;51.540;9.358;2023-06-22T18:35:42;3.15;;;2.38;;
33786;SDS011;29742;51.540;9.358;2023-06-22T18:40:51;2.10;;;1.80;;
33786;SDS011;29742;51.540;9.358;2023-06-22T18:45:52;3.97;;;2.40;;
33786;SDS011;29742;51.540;9.358;2023-06-22T18:50:52;2.25;;;1.98;;
33786;SDS011;29742;51.540;9.358;2023-06-22T18:56:11;2.30;;;2.03;;
33786;SDS011;29742;51.540;9.358;2023-06-22T19:11:50;2.22;;;2.03;;
33786;SDS011;29742;51.540;9.358;2023-06-22T19:17:20;2.80;;;1.58;;
33786;SDS011;29742;51.540;9.358;2023-06-22T19:22:42;3.35;;;1.67;;
33786;SDS011;29742;51.540;9.358;2023-06-22T19:27:55;2.10;;;1.27;;
33786;SDS011;29742;51.540;9.358;2023-06-22T19:32:58;1.30;;;1.20;;
33786;SDS011;29742;51.540;9.358;2023-06-22T19:37:58;0.73;;;0.73;;
33786;SDS011;29742;51.540;9.358;2023-06-22T19:42:59;1.90;;;0.80;;
33786;SDS011;29742;51.540;9.358;2023-06-22T19:47:59;0.75;;;0.68;;
33786;SDS011;29742;51.540;9.358;2023-06-22T19:52:59;0.73;;;0.73;;
33786;SDS011;29742;51.540;9.358;2023-06-22T19:58:00;1.08;;;0.80;;
33786;SDS011;29742;51.540;9.358;2023-06-22T20:03:00;0.90;;;0.73;;
33786;SDS011;29742;51.540;9.358;2023-06-22T20:08:02;0.85;;;0.65;;
33786;SDS011;29742;51.540;9.358;2023-06-22T20:13:08;0.40;;;0.38;;
33786;SDS011;29742;51.540;9.358;2023-06-22T20:18:12;0.55;;;0.47;;
33786;SDS011;29742;51.540;9.358;2023-06-22T20:23:17;0.60;;;0.60;;
33786;SDS011;29742;51.540;9.358;2023-06-22T20:28:19;0.60;;;0.60;;
33786;SDS011;29742;51.540;9.358;2023-06-22T20:33:20;1.60;;;0.50;;
33786;SDS011;29742;51.540;9.358;2023-06-22T20:38:22;0.88;;;0.50;;
33786;SDS011;29742;51.540;9.358;2023-06-22T20:43:23;0.47;;;0.40;;
33786;SDS011;29742;51.540;9.358;2023-06-22T20:48:23;0.80;;;0.38;;
33786;SDS011;29742;51.540;9.358;2023-06-22T20:53:24;0.40;;;0.40;;
33786;SDS011;29742;51.540;9.358;2023-06-22T20:58:24;0.52;;;0.50;;
33786;SDS011;29742;51.540;9.358;2023-06-22T21:03:25;1.02;;;0.52;;
33786;SDS011;29742;51.540;9.358;2023-06-22T21:08:25;0.50;;;0.45;;
33786;SDS011;29742;51.540;9.358;2023-06-22T21:13:26;0.52;;;0.50;;
33786;SDS011;29742;51.540;9.358;2023-06-22T21:18:26;1.98;;;0.32;;
33786;SDS011;29742;51.540;9.358;2023-06-22T21:23:26;0.43;;;0.43;;
33786;SDS011;29742;51.540;9.358;2023-06-22T21:28:27;0.30;;;0.30;;
33786;SDS011;29742;51.540;9.358;2023-06-22T21:33:27;0.85;;;0.68;;
33786;SDS011;29742;51.540;9.358;2023-06-22T21:38:27;0.40;;;0.40;;
33786;SDS011;29742;51.540;9.358;2023-06-22T21:43:28;0.80;;;0.68;;
33786;SDS011;29742;51.540;9.358;2023-06-22T21:48:28;0.43;;;0.40;;
33786;SDS011;29742;51.540;9.358;2023-06-22T21:53:29;0.30;;;0.30;;
33786;SDS011;29742;51.540;9.358;2023-06-22T21:58:29;0.65;;;0.50;;
33786;SDS011;29742;51.540;9.358;2023-06-22T22:03:29;0.40;;;0.40;;
33786;SDS011;29742;51.540;9.358;2023-06-22T22:08:30;0.40;;;0.38;;
33786;SDS011;29742;51.540;9.358;2023-06-22T22:13:30;0.50;;;0.50;;
33786;SDS011;29742;51.540;9.358;2023-06-22T22:18:32;0.30;;;0.30;;
33786;SDS011;29742;51.540;9.358;2023-06-22T22:23:33;0.50;;;0.45;;
33786;SDS011;29742;51.540;9.358;2023-06-22T22:28:33;0.98;;;0.40;;
33786;SDS011;29742;51.540;9.358;2023-06-22T22:33:34;0.75;;;0.30;;
33786;SDS011;29742;51.540;9.358;2023-06-22T22:38:36;0.32;;;0.32;;
33786;SDS011;29742;51.540;9.358;2023-06-22T22:43:36;0.50;;;0.45;;
33786;SDS011;29742;51.540;9.358;2023-06-22T22:48:36;1.23;;;0.35;;
33786;SDS011;29742;51.540;9.358;2023-06-22T22:53:37;0.57;;;0.25;;
33786;SDS011;29742;51.540;9.358;2023-06-22T22:58:37;0.32;;;0.32;;
33786;SDS011;29742;51.540;9.358;2023-06-22T23:03:38;0.52;;;0.38;;
33786;SDS011;29742;51.540;9.358;2023-06-22T23:08:38;1.33;;;0.50;;
33786;SDS011;29742;51.540;9.358;2023-06-22T23:13:38;0.70;;;0.40;;
33786;SDS011;29742;51.540;9.358;2023-06-22T23:18:39;0.63;;;0.32;;
33786;SDS011;29742;51.540;9.358;2023-06-22T23:23:41;0.90;;;0.57;;
33786;SDS011;29742;51.540;9.358;2023-06-22T23:28:41;0.80;;;0.65;;
33786;SDS011;29742;51.540;9.358;2023-06-22T23:33:42;0.47;;;0.43;;
33786;SDS011;29742;51.540;9.358;2023-06-22T23:38:42;0.68;;;0.60;;
33786;SDS011;29742;51.540;9.358;2023-06-22T23:43:43;0.40;;;0.38;;
33786;SDS011;29742;51.540;9.358;2023-06-22T23:48:43;0.50;;;0.43;;
33786;SDS011;29742;51.540;9.358;2023-06-22T23:53:44;0.68;;;0.38;;
33786;SDS011;29742;51.540;9.358;2023-06-22T23:58:45;0.55;;;0.47;;
